createdAt,value
2018-05-29T00:00:58.552Z,3.20
2018-05-29T00:03:27.729Z,3.10
2018-05-29T00:06:00.783Z,3.44
2018-05-29T00:08:33.325Z,3.20
2018-05-29T00:11:02.272Z,3.40
2018-05-29T00:13:31.271Z,3.47
2018-05-29T00:16:01.486Z,3.33
2018-05-29T00:18:30.526Z,3.30
2018-05-29T00:20:59.502Z,3.10
2018-05-29T00:23:28.642Z,2.90
2018-05-29T00:26:02.120Z,3.11
2018-05-29T00:28:31.164Z,3.30
2018-05-29T00:31:00.555Z,3.42
2018-05-29T00:33:29.506Z,3.10
2018-05-29T00:36:00.256Z,3.14
2018-05-29T00:38:31.822Z,3.22
2018-05-29T00:41:00.870Z,3.23
2018-05-29T00:43:33.392Z,3.68
2018-05-29T00:46:04.105Z,3.40
2018-05-29T00:48:39.332Z,3.44
2018-05-29T00:51:08.355Z,3.70
2018-05-29T00:53:37.898Z,3.42
2018-05-29T00:56:10.362Z,3.30
2018-05-29T00:58:41.821Z,3.56
2018-05-29T01:01:10.849Z,3.43
2018-05-29T01:03:39.807Z,3.70
2018-05-29T01:06:08.778Z,3.50
2018-05-29T01:08:39.765Z,3.68
2018-05-29T01:11:08.840Z,3.93
2018-05-29T01:13:46.243Z,3.60
2018-05-29T01:16:15.249Z,3.58
2018-05-29T01:18:44.222Z,4.00
2018-05-29T01:21:13.277Z,3.93
2018-05-29T01:23:46.418Z,3.17
2018-05-29T01:26:15.494Z,4.43
2018-05-29T01:28:46.037Z,3.40
2018-05-29T01:31:16.774Z,3.88
2018-05-29T01:33:45.758Z,3.60
2018-05-29T01:36:17.614Z,3.62
2018-05-29T01:38:47.794Z,3.90
2018-05-29T01:41:18.867Z,3.50
2018-05-29T01:43:49.555Z,3.78
2018-05-29T01:46:20.186Z,3.94
2018-05-29T01:48:50.468Z,3.70
2018-05-29T01:51:21.670Z,3.70
2018-05-29T01:54:01.731Z,3.87
2018-05-29T01:56:39.417Z,3.24
2018-05-29T01:59:08.463Z,3.30
2018-05-29T02:01:37.429Z,3.97
2018-05-29T02:04:06.515Z,3.83
2018-05-29T02:06:40.234Z,3.53
2018-05-29T02:09:09.593Z,3.55
2018-05-29T02:11:38.996Z,4.32
2018-05-29T02:14:08.451Z,3.83
2018-05-29T02:16:37.514Z,3.67
2018-05-29T02:19:07.193Z,3.87
2018-05-29T02:21:38.142Z,3.67
2018-05-29T02:24:07.137Z,3.50
2018-05-29T02:26:36.107Z,3.77
2018-05-29T02:29:06.991Z,3.60
2018-05-29T02:31:37.807Z,3.87
2018-05-29T02:34:11.932Z,3.69
2018-05-29T02:36:40.894Z,3.43
2018-05-29T02:39:11.618Z,4.10
2018-05-29T02:41:41.404Z,4.18
2018-05-29T02:44:18.720Z,3.72
2018-05-29T02:46:48.280Z,3.53
2018-05-29T02:49:17.255Z,3.77
2018-05-29T02:51:51.177Z,4.03
2018-05-29T02:54:20.462Z,3.82
2018-05-29T02:56:49.647Z,3.70
2018-05-29T02:59:18.691Z,3.73
2018-05-29T03:01:47.661Z,4.00
2018-05-29T03:04:19.230Z,3.80
2018-05-29T03:06:50.036Z,3.95
2018-05-29T03:09:20.691Z,3.80
2018-05-29T03:11:56.903Z,3.57
2018-05-29T03:14:28.587Z,3.78
2018-05-29T03:16:57.601Z,4.80
2018-05-29T03:19:28.058Z,3.74
2018-05-29T03:21:57.093Z,3.70
2018-05-29T03:24:26.669Z,3.58
2018-05-29T03:26:55.858Z,3.80
2018-05-29T03:29:39.564Z,4.44
2018-05-29T03:32:09.161Z,4.07
2018-05-29T03:34:38.130Z,3.70
2018-05-29T03:37:12.881Z,3.97
2018-05-29T03:39:41.838Z,3.63
2018-05-29T03:42:19.070Z,4.15
2018-05-29T03:44:48.180Z,4.07
2018-05-29T03:47:17.412Z,3.93
2018-05-29T03:49:46.438Z,3.80
2018-05-29T03:52:15.979Z,3.58
2018-05-29T03:54:44.973Z,3.87
2018-05-29T03:57:14.513Z,3.70
2018-05-29T03:59:43.466Z,3.50
2018-05-29T04:02:14.382Z,3.71
2018-05-29T04:04:43.380Z,3.90
2018-05-29T04:07:22.505Z,4.21
2018-05-29T04:09:51.511Z,4.12
2018-05-29T04:12:20.531Z,3.50
2018-05-29T04:14:50.158Z,3.90
2018-05-29T04:17:20.039Z,3.86
2018-05-29T04:20:03.752Z,4.16
2018-05-29T04:22:34.010Z,3.82
2018-05-29T04:25:03.407Z,4.10
2018-05-29T04:27:32.384Z,3.80
2018-05-29T04:30:01.339Z,3.40
2018-05-29T04:32:30.839Z,3.75
2018-05-29T04:35:08.755Z,3.47
2018-05-29T04:37:38.124Z,3.40
2018-05-29T04:40:07.691Z,3.90
2018-05-29T04:42:36.809Z,3.40
2018-05-29T04:45:05.908Z,3.87
2018-05-29T04:47:34.921Z,3.50
2018-05-29T04:50:03.918Z,3.00
2018-05-29T04:52:45.883Z,3.63
2018-05-29T04:55:14.975Z,3.63
2018-05-29T04:57:43.938Z,3.25
2018-05-29T05:00:13.174Z,3.03
2018-05-29T05:02:42.218Z,3.17
2018-05-29T05:05:11.654Z,2.75
2018-05-29T05:07:40.764Z,3.07
2018-05-29T05:10:09.741Z,2.87
2018-05-29T05:12:38.696Z,3.50
2018-05-29T05:15:07.723Z,2.70
2018-05-29T05:17:36.720Z,3.07
2018-05-29T05:20:05.690Z,2.90
2018-05-29T05:22:45.471Z,3.04
2018-05-29T05:25:16.281Z,3.00
2018-05-29T05:30:20.624Z,3.30
2018-05-29T05:32:49.618Z,4.50
2018-05-29T05:35:18.721Z,4.87
2018-05-29T05:37:47.936Z,3.80
2018-05-29T05:40:16.948Z,3.50
2018-05-29T05:42:45.995Z,3.10
2018-05-29T05:45:14.967Z,3.70
2018-05-29T05:47:43.950Z,5.77
2018-05-29T05:50:16.538Z,4.58
2018-05-29T05:52:46.020Z,3.08
2018-05-29T05:55:15.021Z,3.50
2018-05-29T05:57:45.733Z,3.35
2018-05-29T06:00:16.827Z,4.30
2018-05-29T06:02:47.571Z,3.33
2018-05-29T06:05:18.713Z,3.53
2018-05-29T06:07:50.520Z,3.48
2018-05-29T06:10:21.232Z,3.15
2018-05-29T06:12:51.494Z,3.57
2018-05-29T06:15:25.567Z,3.27
2018-05-29T06:18:00.701Z,3.42
2018-05-29T06:20:33.676Z,3.11
2018-05-29T06:23:02.718Z,4.03
2018-05-29T06:25:31.714Z,3.97
2018-05-29T06:30:59.807Z,2.80
2018-05-29T06:33:29.054Z,3.47
2018-05-29T06:35:58.270Z,3.25
2018-05-29T06:38:28.395Z,3.53
2018-05-29T06:40:57.949Z,3.15
2018-05-29T06:43:27.472Z,3.07
2018-05-29T06:45:56.865Z,3.00
2018-05-29T06:48:26.294Z,3.57
2018-05-29T06:50:56.322Z,3.17
2018-05-29T06:53:25.398Z,3.10
2018-05-29T06:55:54.500Z,3.07
2018-05-29T06:58:25.011Z,3.12
2018-05-29T07:00:55.001Z,3.63
2018-05-29T07:03:24.128Z,3.37
2018-05-29T07:05:53.189Z,3.10
2018-05-29T07:08:22.491Z,2.77
2018-05-29T07:10:51.495Z,3.33
2018-05-29T07:13:27.068Z,3.01
2018-05-29T07:15:56.222Z,3.80
2018-05-29T07:18:25.463Z,3.20
2018-05-29T07:20:54.592Z,3.20
2018-05-29T07:23:23.758Z,3.10
2018-05-29T07:25:53.112Z,3.30
2018-05-29T07:28:22.652Z,4.03
2018-05-29T07:31:04.435Z,3.69
2018-05-29T07:33:33.707Z,3.27
2018-05-29T07:36:02.693Z,3.30
2018-05-29T07:38:31.658Z,3.63
2018-05-29T07:41:03.194Z,2.97
2018-05-29T07:43:32.148Z,3.30
2018-05-29T07:46:01.186Z,3.40
2018-05-29T07:48:30.117Z,3.03
2018-05-29T07:50:59.229Z,3.30
2018-05-29T07:53:34.474Z,3.38
2018-05-29T07:56:04.645Z,3.56
2018-05-29T07:58:33.777Z,3.17
2018-05-29T08:01:08.566Z,3.72
2018-05-29T08:03:42.519Z,3.69
2018-05-29T08:06:12.324Z,3.67
2018-05-29T08:08:44.308Z,3.37
2018-05-29T08:11:13.367Z,3.50
2018-05-29T08:13:46.109Z,3.45
2018-05-29T08:16:21.215Z,3.31
2018-05-29T08:18:50.901Z,3.92
2018-05-29T08:21:20.303Z,3.40
2018-05-29T08:23:53.451Z,3.00
2018-05-29T08:26:22.433Z,2.80
2018-05-29T08:28:54.051Z,2.78
2018-05-29T08:31:23.727Z,3.45
2018-05-29T08:33:52.913Z,3.05
2018-05-29T08:36:22.003Z,3.30
2018-05-29T08:38:51.281Z,3.20
2018-05-29T08:41:20.386Z,2.83
2018-05-29T08:43:49.719Z,3.72
2018-05-29T08:46:33.097Z,3.27
2018-05-29T08:49:02.232Z,2.60
2018-05-29T08:51:31.256Z,2.57
2018-05-29T08:54:01.810Z,3.00
2018-05-29T08:56:34.931Z,3.29
2018-05-29T08:59:03.994Z,3.27
2018-05-29T09:01:33.094Z,3.03
2018-05-29T09:04:02.219Z,2.73
2018-05-29T09:06:37.117Z,2.77
2018-05-29T09:09:08.430Z,2.80
2018-05-29T09:11:37.887Z,2.92
2018-05-29T09:14:06.977Z,3.05
2018-05-29T09:16:36.234Z,3.33
2018-05-29T09:19:05.380Z,2.97
2018-05-29T09:21:34.482Z,3.00
2018-05-29T09:24:03.754Z,3.10
2018-05-29T09:26:41.511Z,2.91
2018-05-29T09:29:17.922Z,2.94
2018-05-29T09:31:47.584Z,2.90
2018-05-29T09:34:16.769Z,3.40
2018-05-29T09:36:46.618Z,3.50
2018-05-29T09:42:18.504Z,2.90
2018-05-29T09:44:47.634Z,3.07
2018-05-29T09:47:17.018Z,3.00
2018-05-29T09:49:46.328Z,3.10
2018-05-29T09:52:15.674Z,2.95
2018-05-29T09:54:44.901Z,2.93
2018-05-29T09:57:14.021Z,2.67
2018-05-29T09:59:43.103Z,2.93
2018-05-29T10:02:12.066Z,4.63
2018-05-29T10:04:42.880Z,3.06
2018-05-29T10:07:12.000Z,3.17
2018-05-29T10:09:41.557Z,2.78
2018-05-29T10:12:10.771Z,2.80
2018-05-29T10:14:39.864Z,3.10
2018-05-29T10:17:09.178Z,3.28
2018-05-29T10:19:38.652Z,3.40
2018-05-29T10:22:07.897Z,3.00
2018-05-29T10:24:37.852Z,2.86
2018-05-29T10:27:07.373Z,3.00
2018-05-29T10:29:42.819Z,3.56
2018-05-29T10:32:12.045Z,3.20
2018-05-29T10:34:41.544Z,3.54
2018-05-29T10:37:10.542Z,3.05
2018-05-29T10:39:41.524Z,3.40
2018-05-29T10:42:12.522Z,3.67
2018-05-29T10:44:42.055Z,3.40
2018-05-29T10:47:11.133Z,3.70
2018-05-29T10:49:40.161Z,3.27
2018-05-29T10:52:12.007Z,3.63
2018-05-29T10:54:53.012Z,3.74
2018-05-29T10:57:26.092Z,3.60
2018-05-29T10:59:55.708Z,3.15
2018-05-29T11:02:25.007Z,3.87
2018-05-29T11:04:54.554Z,4.00
2018-05-29T11:07:25.357Z,3.34
2018-05-29T11:09:54.758Z,3.60
2018-05-29T11:12:36.125Z,3.50
2018-05-29T11:15:08.179Z,3.87
2018-05-29T11:17:37.531Z,3.60
2018-05-29T11:20:06.649Z,3.40
2018-05-29T11:22:41.227Z,4.00
2018-05-29T11:25:10.372Z,4.07
2018-05-29T11:27:39.739Z,3.70
2018-05-29T11:30:09.017Z,4.00
2018-05-29T11:32:38.036Z,3.63
2018-05-29T11:35:07.221Z,3.77
2018-05-29T11:37:36.435Z,3.90
2018-05-29T11:40:05.371Z,3.90
2018-05-29T11:42:45.479Z,3.80
2018-05-29T11:45:14.603Z,4.00
2018-05-29T11:47:44.132Z,3.97
2018-05-29T11:50:13.810Z,3.80
2018-05-29T11:52:42.775Z,4.10
2018-05-29T11:55:16.684Z,4.60
2018-05-29T11:57:45.925Z,3.90
2018-05-29T12:00:15.685Z,4.28
2018-05-29T12:02:45.027Z,4.20
2018-05-29T12:05:14.061Z,4.20
2018-05-29T12:07:43.970Z,4.43
2018-05-29T12:10:13.079Z,4.10
2018-05-29T12:12:42.302Z,3.70
2018-05-29T12:15:11.467Z,3.90
2018-05-29T12:17:40.725Z,4.54
2018-05-29T12:20:09.569Z,4.07
2018-05-29T12:22:53.702Z,4.28
2018-05-29T12:25:29.738Z,4.40
2018-05-29T12:27:59.087Z,4.17
2018-05-29T12:30:28.527Z,4.23
2018-05-29T12:32:57.817Z,4.07
2018-05-29T12:35:27.287Z,4.00
2018-05-29T12:38:11.774Z,4.37
2018-05-29T12:40:40.875Z,4.17
2018-05-29T12:43:10.269Z,4.43
2018-05-29T12:45:39.427Z,3.90
2018-05-29T12:48:09.028Z,3.80
2018-05-29T12:50:38.386Z,4.40
2018-05-29T12:53:07.830Z,4.10
2018-05-29T12:55:49.468Z,4.17
2018-05-29T12:58:18.785Z,3.53
2018-05-29T13:00:47.966Z,4.07
2018-05-29T13:03:17.287Z,4.12
2018-05-29T13:05:46.387Z,4.37
2018-05-29T13:11:01.032Z,4.00
2018-05-29T13:13:30.006Z,4.33
2018-05-29T13:15:58.998Z,3.80
2018-05-29T13:18:28.141Z,4.00
2018-05-29T13:20:57.474Z,3.87
2018-05-29T13:23:26.584Z,4.10
2018-05-29T13:25:55.607Z,4.37
2018-05-29T13:28:24.570Z,3.80
2018-05-29T13:30:53.823Z,3.92
2018-05-29T13:33:22.836Z,4.00
2018-05-29T13:36:02.742Z,3.76
2018-05-29T13:38:31.790Z,4.23
2018-05-29T13:41:06.571Z,3.93
2018-05-29T13:43:35.585Z,4.00
2018-05-29T13:46:04.594Z,4.00
2018-05-29T13:51:23.122Z,4.00
2018-05-29T13:53:52.164Z,4.20
2018-05-29T13:56:21.167Z,4.47
2018-05-29T13:58:50.282Z,3.53
2018-05-29T14:01:19.271Z,3.30
2018-05-29T14:03:48.300Z,3.90
2018-05-29T14:06:17.333Z,3.70
2018-05-29T14:08:47.130Z,4.30
2018-05-29T14:11:16.128Z,4.03
2018-05-29T14:13:46.125Z,3.80
2018-05-29T14:16:15.128Z,3.73
2018-05-29T14:18:55.205Z,4.27
2018-05-29T14:24:08.179Z,3.17
2018-05-29T14:26:37.190Z,3.10
2018-05-29T14:29:06.167Z,2.27
2018-05-29T14:31:35.243Z,2.30
2018-05-29T14:34:04.517Z,2.60
2018-05-29T14:36:33.483Z,3.17
2018-05-29T14:39:02.517Z,3.00
2018-05-29T14:41:31.583Z,3.37
2018-05-29T14:44:00.643Z,3.80
2018-05-29T14:46:29.601Z,4.10
2018-05-29T14:48:59.333Z,4.17
2018-05-29T14:51:29.158Z,3.87
2018-05-29T14:54:00.285Z,4.45
2018-05-29T14:56:29.373Z,4.57
2018-05-29T14:58:58.326Z,4.77
2018-05-29T15:01:27.287Z,4.90
2018-05-29T15:03:56.368Z,4.90
2018-05-29T15:06:25.350Z,4.60
2018-05-29T15:08:54.305Z,5.33
2018-05-29T15:11:23.432Z,4.90
2018-05-29T15:13:52.415Z,4.93
2018-05-29T15:16:21.365Z,4.20
2018-05-29T15:18:50.452Z,3.60
2018-05-29T15:21:19.768Z,3.57
2018-05-29T15:23:48.725Z,3.80
2018-05-29T15:26:17.931Z,3.97
2018-05-29T15:28:47.306Z,4.07
2018-05-29T15:31:16.344Z,4.30
2018-05-29T15:33:45.665Z,4.93
2018-05-29T15:36:14.626Z,9.33
2018-05-29T15:38:43.881Z,4.67
2018-05-29T15:41:12.899Z,4.60
2018-05-29T15:43:42.152Z,4.47
2018-05-29T15:46:11.426Z,3.73
2018-05-29T15:48:40.532Z,3.90
2018-05-29T15:51:09.550Z,3.80
2018-05-29T15:53:38.584Z,4.70
2018-05-29T15:56:07.636Z,5.00
2018-05-29T15:58:36.619Z,3.93
2018-05-29T16:01:06.392Z,4.50
2018-05-29T16:03:35.415Z,4.17
2018-05-29T16:06:04.515Z,4.10
2018-05-29T16:08:33.513Z,3.93
2018-05-29T16:11:02.722Z,3.60
2018-05-29T16:13:31.981Z,3.47
2018-05-29T16:16:01.038Z,3.57
2018-05-29T16:18:30.151Z,3.30
2018-05-29T16:20:59.174Z,3.80
2018-05-29T16:23:28.166Z,3.10
2018-05-29T16:25:57.222Z,3.40
2018-05-29T16:28:26.513Z,3.70
2018-05-29T16:30:55.488Z,3.70
2018-05-29T16:33:24.581Z,3.33
2018-05-29T16:35:53.578Z,3.90
2018-05-29T16:38:22.576Z,4.03
2018-05-29T16:40:51.649Z,3.43
2018-05-29T16:43:22.377Z,3.93
2018-05-29T16:45:51.560Z,3.90
2018-05-29T16:48:20.537Z,4.10
2018-05-29T16:50:49.531Z,3.20
2018-05-29T16:53:18.597Z,3.73
2018-05-29T16:55:47.611Z,4.13
2018-05-29T16:58:16.887Z,3.70
2018-05-29T17:00:45.981Z,3.53
2018-05-29T17:03:14.999Z,3.23
2018-05-29T17:05:44.023Z,3.57
2018-05-29T17:08:13.198Z,3.50
2018-05-29T17:10:42.322Z,3.80
2018-05-29T17:13:11.346Z,4.10
2018-05-29T17:15:40.717Z,3.90
2018-05-29T17:18:10.034Z,3.63
2018-05-29T17:20:39.066Z,4.27
2018-05-29T17:23:08.820Z,5.50
2018-05-29T17:25:38.031Z,5.93
2018-05-29T17:28:07.182Z,4.47
2018-05-29T17:30:36.442Z,4.13
2018-05-29T17:33:06.900Z,4.10
2018-05-29T17:35:36.933Z,3.93
2018-05-29T17:38:07.075Z,3.97
2018-05-29T17:40:37.570Z,4.53
2018-05-29T17:43:08.366Z,3.80
2018-05-29T17:45:38.600Z,3.60
2018-05-29T17:48:08.335Z,4.17
2018-05-29T17:50:38.137Z,5.07
2018-05-29T17:53:08.527Z,6.70
2018-05-29T17:55:40.299Z,5.67
2018-05-29T17:58:11.198Z,5.57
2018-05-29T18:00:42.777Z,4.97
2018-05-29T18:03:13.692Z,4.37
2018-05-29T18:05:45.065Z,3.70
2018-05-29T18:08:16.342Z,4.60
2018-05-29T18:10:47.578Z,4.67
2018-05-29T18:13:18.387Z,4.80
2018-05-29T18:15:49.545Z,4.20
2018-05-29T18:18:20.426Z,4.47
2018-05-29T18:20:52.638Z,6.80
2018-05-29T18:23:24.270Z,6.47
2018-05-29T18:25:55.450Z,6.15
2018-05-29T18:28:27.539Z,7.60
2018-05-29T18:30:59.002Z,7.97
2018-05-29T18:33:30.803Z,6.70
2018-05-29T18:36:01.740Z,6.70
2018-05-29T18:38:32.816Z,6.53
2018-05-29T18:41:04.653Z,5.40
2018-05-29T18:43:36.053Z,5.17
2018-05-29T18:46:07.756Z,6.00
2018-05-29T18:48:39.292Z,8.20
2018-05-29T18:51:11.066Z,10.53
2018-05-29T18:53:43.309Z,12.63
2018-05-29T18:56:15.252Z,14.47
2018-05-29T18:58:48.068Z,13.97
2018-05-29T19:01:19.789Z,12.10
2018-05-29T19:03:52.159Z,9.97
2018-05-29T19:06:24.037Z,6.57
2018-05-29T19:08:55.691Z,5.27
2018-05-29T19:11:27.680Z,5.32
2018-05-29T19:14:00.034Z,5.37
2018-05-29T19:16:32.144Z,6.00
2018-05-29T19:19:04.173Z,5.63
2018-05-29T19:21:35.634Z,5.13
2018-05-29T19:24:07.558Z,5.20
2018-05-29T19:26:40.740Z,5.73
2018-05-29T19:29:12.954Z,5.47
2018-05-29T19:31:46.078Z,6.67
2018-05-29T19:34:19.652Z,6.00
2018-05-29T19:36:51.952Z,6.20
2018-05-29T19:39:24.655Z,6.20
2018-05-29T19:41:56.400Z,6.50
2018-05-29T19:44:29.374Z,6.20
2018-05-29T19:47:00.864Z,6.93
2018-05-29T19:49:32.909Z,6.17
2018-05-29T19:52:05.255Z,6.27
2018-05-29T19:54:37.157Z,7.50
2018-05-29T19:57:08.877Z,7.23
2018-05-29T19:59:40.689Z,8.50
2018-05-29T20:02:12.304Z,8.27
2018-05-29T20:04:44.354Z,7.00
2018-05-29T20:07:16.488Z,5.27
2018-05-29T20:09:48.236Z,5.60
2018-05-29T20:12:20.251Z,6.57
2018-05-29T20:14:52.282Z,6.47
2018-05-29T20:17:34.485Z,7.13
2018-05-29T20:20:06.463Z,6.20
2018-05-29T20:22:38.573Z,6.30
2018-05-29T20:25:10.104Z,5.43
2018-05-29T20:27:41.853Z,5.65
2018-05-29T20:30:18.074Z,5.40
2018-05-29T20:32:49.494Z,5.57
2018-05-29T20:35:19.957Z,5.57
2018-05-29T20:37:50.251Z,5.00
2018-05-29T20:40:20.432Z,5.33
2018-05-29T20:42:51.181Z,5.73
2018-05-29T20:45:20.690Z,5.53
2018-05-29T20:47:49.849Z,5.07
2018-05-29T20:50:18.841Z,6.00
2018-05-29T20:52:47.932Z,6.33
2018-05-29T20:55:16.987Z,5.17
2018-05-29T20:57:46.336Z,5.90
2018-05-29T21:00:15.467Z,5.60
2018-05-29T21:02:44.565Z,5.83
2018-05-29T21:05:13.540Z,5.60
2018-05-29T21:07:42.587Z,5.93
2018-05-29T21:10:11.605Z,6.37
2018-05-29T21:12:40.606Z,6.00
2018-05-29T21:15:09.812Z,6.10
2018-05-29T21:17:38.870Z,6.17
2018-05-29T21:20:07.933Z,5.83
2018-05-29T21:22:37.235Z,5.90
2018-05-29T21:25:06.229Z,5.80
2018-05-29T21:27:35.358Z,6.00
2018-05-29T21:30:04.509Z,7.00
2018-05-29T21:32:33.840Z,7.85
2018-05-29T21:35:03.034Z,7.67
2018-05-29T21:37:32.310Z,6.53
2018-05-29T21:40:01.604Z,6.20
2018-05-29T21:42:30.878Z,6.12
2018-05-29T21:44:59.854Z,5.97
2018-05-29T21:47:29.208Z,5.73
2018-05-29T21:49:58.313Z,5.77
2018-05-29T21:52:27.305Z,6.70
2018-05-29T21:54:56.334Z,6.57
2018-05-29T21:57:25.493Z,5.53
2018-05-29T21:59:54.499Z,6.20
2018-05-29T22:02:23.712Z,6.03
2018-05-29T22:04:52.692Z,6.17
2018-05-29T22:07:21.715Z,6.13
2018-05-29T22:09:50.732Z,6.37
2018-05-29T22:12:19.682Z,6.07
2018-05-29T22:14:48.711Z,6.73
2018-05-29T22:17:17.875Z,6.53
2018-05-29T22:19:46.988Z,6.40
2018-05-29T22:22:15.957Z,6.63
2018-05-29T22:24:44.954Z,6.97
2018-05-29T22:27:14.352Z,7.20
2018-05-29T22:29:43.582Z,7.83
2018-05-29T22:32:13.221Z,7.10
2018-05-29T22:34:42.496Z,7.20
2018-05-29T22:37:11.530Z,7.80
2018-05-29T22:39:40.527Z,7.20
2018-05-29T22:42:09.529Z,7.40
2018-05-29T22:44:38.779Z,8.13
2018-05-29T22:47:08.221Z,6.53
2018-05-29T22:49:37.792Z,8.02
2018-05-29T22:52:06.765Z,8.07
2018-05-29T22:54:35.703Z,8.17
2018-05-29T22:57:04.694Z,9.33
2018-05-29T22:59:34.105Z,7.70
2018-05-29T23:02:03.117Z,7.40
2018-05-29T23:04:32.107Z,8.13
2018-05-29T23:07:01.106Z,8.37
2018-05-29T23:09:31.674Z,8.07
2018-05-29T23:12:02.711Z,8.07
2018-05-29T23:14:33.606Z,7.93
2018-05-29T23:17:04.679Z,8.20
2018-05-29T23:19:35.579Z,8.70
2018-05-29T23:22:06.658Z,8.25
2018-05-29T23:24:36.601Z,8.15
2018-05-29T23:27:07.286Z,8.63
2018-05-29T23:29:38.227Z,8.75
2018-05-29T23:32:08.741Z,8.63
2018-05-29T23:34:38.963Z,8.00
2018-05-29T23:37:09.942Z,8.65
2018-05-29T23:39:41.034Z,9.10
2018-05-29T23:42:12.189Z,8.85
2018-05-29T23:44:42.931Z,8.57
2018-05-29T23:47:13.859Z,8.23
2018-05-29T23:49:45.439Z,8.44
2018-05-29T23:52:16.130Z,8.20
2018-05-29T23:54:47.041Z,8.20
2018-05-29T23:57:17.903Z,8.57
2018-05-29T23:59:49.009Z,7.82
